createdAt,value
2019-04-23T00:02:53.653Z,5.80
2019-04-23T00:06:04.122Z,5.70
2019-04-23T00:09:10.996Z,5.70
2019-04-23T00:12:01.814Z,5.60
2019-04-23T00:15:09.249Z,5.50
2019-04-23T00:18:12.389Z,5.50
2019-04-23T00:21:24.811Z,5.60
2019-04-23T00:25:21.953Z,5.50
2019-04-23T00:27:51.521Z,5.50
2019-04-23T00:30:54.974Z,5.50
2019-04-23T00:33:49.612Z,5.50
2019-04-23T00:37:06.469Z,5.50
2019-04-23T00:39:59.185Z,5.60
2019-04-23T00:43:01.999Z,5.50
2019-04-23T00:46:06.595Z,5.40
2019-04-23T00:49:10.765Z,5.30
2019-04-23T00:52:14.552Z,5.20
2019-04-23T00:55:15.891Z,5.20
2019-04-23T00:58:22.402Z,5.40
2019-04-23T01:01:29.618Z,5.40
2019-04-23T01:04:27.500Z,5.40
2019-04-23T01:07:31.861Z,5.30
2019-04-23T01:10:52.537Z,5.30
2019-04-23T01:14:01.036Z,5.30
2019-04-23T01:16:48.429Z,5.30
2019-04-23T01:19:57.737Z,5.30
2019-04-23T01:22:44.274Z,5.20
2019-04-23T01:26:26.322Z,5.10
2019-04-23T01:29:38.870Z,4.80
2019-04-23T01:32:36.456Z,5.10
2019-04-23T01:35:41.662Z,5.00
2019-04-23T01:38:49.952Z,4.90
2019-04-23T01:47:54.853Z,4.80
2019-04-23T01:50:57.475Z,4.80
2019-04-23T01:54:02.944Z,4.80
2019-04-23T01:57:09.187Z,4.80
2019-04-23T02:00:17.322Z,4.80
2019-04-23T02:03:18.458Z,4.70
2019-04-23T02:06:16.566Z,4.70
2019-04-23T02:09:17.270Z,4.60
2019-04-23T02:12:25.906Z,4.50
2019-04-23T02:15:29.940Z,4.40
2019-04-23T02:18:30.687Z,4.40
2019-04-23T02:21:38.462Z,4.40
2019-04-23T02:24:41.406Z,4.30
2019-04-23T02:27:42.650Z,4.20
2019-04-23T02:31:12.176Z,4.20
2019-04-23T02:34:00.488Z,4.20
2019-04-23T02:37:00.571Z,4.20
2019-04-23T02:40:08.771Z,4.30
2019-04-23T02:43:15.246Z,4.30
2019-04-23T02:52:18.291Z,4.40
2019-04-23T03:01:49.482Z,4.30
2019-04-23T03:08:00.063Z,4.10
2019-04-23T03:11:01.363Z,4.10
2019-04-23T03:20:21.404Z,4.00
2019-04-23T03:26:57.381Z,4.00
2019-04-23T03:29:48.972Z,4.00
2019-04-23T03:33:29.379Z,4.10
2019-04-23T03:38:48.854Z,4.40
2019-04-23T03:41:54.191Z,4.40
2019-04-23T03:45:13.983Z,4.40
2019-04-23T03:48:05.961Z,4.40
2019-04-23T03:51:03.326Z,4.50
2019-04-23T04:00:31.677Z,4.60
2019-04-23T04:03:42.262Z,4.70
2019-04-23T04:06:40.706Z,4.70
2019-04-23T04:09:34.154Z,4.80
2019-04-23T04:12:29.207Z,4.90
2019-04-23T04:18:38.618Z,5.10
2019-04-23T04:24:39.878Z,5.20
2019-04-23T04:27:58.009Z,5.30
2019-04-23T04:37:16.746Z,5.80
2019-04-23T04:43:13.824Z,6.10
2019-04-23T04:49:17.041Z,6.40
2019-04-23T04:52:21.871Z,6.50
2019-04-23T04:55:16.224Z,6.60
2019-04-23T04:58:32.254Z,6.80
2019-04-23T05:01:23.846Z,6.90
2019-04-23T05:07:36.026Z,7.20
2019-04-23T05:16:38.808Z,7.60
2019-04-23T05:19:42.592Z,7.70
2019-04-23T05:22:49.343Z,8.00
2019-04-23T05:25:44.782Z,8.10
2019-04-23T05:28:55.933Z,8.30
2019-04-23T05:31:48.401Z,8.40
2019-04-23T05:34:57.680Z,8.50
2019-04-23T05:47:11.702Z,9.00
2019-04-23T05:50:18.613Z,9.10
2019-04-23T05:53:11.583Z,9.20
2019-04-23T05:56:20.659Z,9.40
2019-04-23T05:59:16.051Z,9.50
2019-04-23T06:02:32.427Z,9.60
2019-04-23T06:05:32.983Z,9.70
2019-04-23T06:08:38.574Z,9.80
2019-04-23T06:11:47.340Z,10.00
2019-04-23T06:14:45.781Z,10.10
2019-04-23T06:18:02.257Z,10.20
2019-04-23T06:20:59.033Z,10.40
2019-04-23T06:23:51.342Z,10.50
2019-04-23T06:29:57.096Z,10.90
2019-04-23T06:33:11.168Z,10.90
2019-04-23T06:36:10.307Z,11.00
2019-04-23T06:39:01.338Z,11.20
2019-04-23T06:42:06.000Z,11.30
2019-04-23T06:45:19.297Z,11.40
2019-04-23T06:48:24.322Z,11.60
2019-04-23T06:51:25.861Z,11.80
2019-04-23T06:54:24.478Z,12.00
2019-04-23T06:57:41.019Z,12.10
2019-04-23T07:03:43.177Z,12.50
2019-04-23T07:06:46.869Z,12.60
2019-04-23T07:09:43.863Z,12.80
2019-04-23T07:13:01.260Z,12.90
2019-04-23T07:15:53.763Z,13.10
2019-04-23T07:19:07.773Z,13.30
2019-04-23T07:22:09.992Z,13.40
2019-04-23T07:25:17.297Z,13.60
2019-04-23T07:28:12.924Z,13.80
2019-04-23T07:31:28.351Z,13.80
2019-04-23T07:34:12.344Z,13.80
2019-04-23T07:37:17.623Z,14.00
2019-04-23T07:40:35.147Z,14.00
2019-04-23T07:43:58.999Z,14.10
2019-04-23T07:47:11.667Z,14.20
2019-04-23T07:50:09.827Z,14.30
2019-04-23T07:56:11.519Z,14.60
2019-04-23T07:59:16.092Z,14.70
2019-04-23T08:02:21.966Z,14.60
2019-04-23T08:05:22.489Z,14.80
2019-04-23T08:08:24.803Z,14.90
2019-04-23T08:11:34.301Z,14.90
2019-04-23T08:14:32.680Z,15.00
2019-04-23T08:17:37.405Z,15.10
2019-04-23T08:20:55.708Z,15.20
2019-04-23T08:24:10.672Z,15.30
2019-04-23T08:27:18.056Z,15.50
2019-04-23T08:30:16.909Z,15.40
2019-04-23T08:33:24.449Z,15.60
2019-04-23T08:36:39.517Z,15.80
2019-04-23T08:39:38.590Z,16.00
2019-04-23T08:42:52.921Z,16.10
2019-04-23T08:45:48.223Z,16.20
2019-04-23T08:48:49.645Z,16.10
2019-04-23T08:57:47.435Z,16.10
2019-04-23T09:01:05.129Z,16.10
2019-04-23T09:04:09.325Z,16.20
2019-04-23T09:07:17.880Z,16.40
2019-04-23T09:10:19.576Z,16.50
2019-04-23T09:13:50.240Z,16.50
2019-04-23T09:16:28.422Z,16.60
2019-04-23T09:22:38.897Z,16.50
2019-04-23T09:28:56.751Z,16.50
2019-04-23T09:32:13.447Z,16.60
2019-04-23T09:38:19.565Z,17.00
2019-04-23T09:41:27.025Z,17.20
2019-04-23T09:44:56.812Z,17.20
2019-04-23T09:51:04.955Z,17.10
2019-04-23T09:54:09.197Z,17.50
2019-04-23T09:57:06.159Z,17.60
2019-04-23T10:00:22.483Z,17.80
2019-04-23T10:03:07.967Z,17.80
2019-04-23T10:06:02.985Z,17.80
2019-04-23T10:09:01.461Z,18.10
2019-04-23T10:12:03.081Z,18.00
2019-04-23T10:15:13.184Z,17.90
2019-04-23T10:18:10.090Z,18.00
2019-04-23T10:21:13.048Z,17.90
2019-04-23T10:24:15.188Z,18.00
2019-04-23T10:27:18.777Z,18.10
2019-04-23T10:30:21.801Z,18.30
2019-04-23T10:33:23.642Z,18.30
2019-04-23T10:36:29.505Z,18.40
2019-04-23T10:39:35.109Z,18.50
2019-04-23T10:42:35.884Z,18.60
2019-04-23T10:45:59.269Z,18.70
2019-04-23T10:55:25.599Z,19.10
2019-04-23T11:01:32.523Z,19.30
2019-04-23T11:10:32.862Z,19.60
2019-04-23T11:13:50.227Z,19.80
2019-04-23T11:19:56.674Z,20.20
2019-04-23T11:22:51.792Z,20.50
2019-04-23T11:25:56.107Z,20.60
2019-04-23T11:29:15.050Z,20.70
2019-04-23T11:32:19.773Z,20.80
2019-04-23T11:35:33.907Z,20.90
2019-04-23T11:38:43.600Z,21.50
2019-04-23T11:41:25.061Z,22.10
2019-04-23T11:44:26.939Z,21.60
2019-04-23T11:47:45.628Z,21.80
2019-04-23T11:53:33.881Z,21.90
2019-04-23T11:57:13.471Z,21.80
2019-04-23T12:06:15.351Z,22.20
2019-04-23T12:12:37.864Z,22.20
2019-04-23T12:18:51.425Z,22.30
2019-04-23T12:21:43.971Z,23.10
2019-04-23T12:27:38.619Z,22.80
2019-04-23T12:30:50.593Z,23.10
2019-04-23T12:33:57.548Z,22.60
2019-04-23T12:37:06.138Z,23.10
2019-04-23T12:40:15.412Z,23.60
2019-04-23T12:43:17.493Z,23.90
2019-04-23T12:46:17.762Z,23.90
2019-04-23T12:49:44.224Z,23.60
2019-04-23T12:58:39.794Z,24.30
2019-04-23T13:01:47.026Z,24.00
2019-04-23T13:04:42.023Z,23.90
2019-04-23T13:07:43.633Z,23.20
2019-04-23T13:10:47.962Z,23.40
2019-04-23T13:13:53.506Z,23.20
2019-04-23T13:17:05.063Z,23.20
2019-04-23T13:20:03.598Z,23.20
2019-04-23T13:26:22.023Z,23.10
2019-04-23T13:29:18.470Z,23.20
2019-04-23T13:32:24.265Z,23.30
2019-04-23T13:41:26.107Z,22.90
2019-04-23T13:44:33.633Z,23.10
2019-04-23T13:47:50.494Z,22.80
2019-04-23T13:50:57.822Z,22.90
2019-04-23T13:53:50.296Z,22.50
2019-04-23T13:57:24.066Z,22.90
2019-04-23T13:59:48.441Z,23.20
2019-04-23T14:02:56.001Z,22.70
2019-04-23T14:09:21.627Z,23.80
2019-04-23T14:12:18.217Z,23.20
2019-04-23T14:18:53.116Z,22.60
2019-04-23T14:21:37.543Z,22.00
2019-04-23T14:24:40.724Z,22.50
2019-04-23T14:27:36.417Z,22.90
2019-04-23T14:30:46.572Z,23.50
2019-04-23T14:36:52.740Z,22.90
2019-04-23T14:39:52.984Z,22.80
2019-04-23T14:43:04.231Z,23.10
2019-04-23T14:46:31.122Z,22.90
2019-04-23T14:49:07.213Z,22.40
2019-04-23T14:52:14.227Z,22.80
2019-04-23T14:58:39.681Z,22.70
2019-04-23T15:01:34.718Z,22.50
2019-04-23T15:04:42.262Z,22.40
2019-04-23T15:07:42.118Z,22.90
2019-04-23T15:11:05.217Z,23.30
2019-04-23T15:13:49.434Z,23.60
2019-04-23T15:16:54.414Z,23.00
2019-04-23T15:23:25.439Z,24.20
2019-04-23T15:28:56.071Z,24.00
2019-04-23T15:32:21.700Z,24.30
2019-04-23T15:35:39.647Z,24.20
2019-04-23T15:38:36.099Z,24.80
2019-04-23T15:41:32.083Z,24.90
2019-04-23T15:44:28.201Z,23.30
2019-04-23T15:47:32.613Z,23.20
2019-04-23T15:50:38.535Z,23.70
2019-04-23T15:53:37.251Z,24.40
2019-04-23T16:02:21.642Z,22.40
2019-04-23T16:05:27.842Z,22.30
2019-04-23T16:11:56.885Z,22.20
2019-04-23T16:18:45.395Z,22.30
2019-04-23T16:21:47.301Z,21.90
2019-04-23T16:24:55.319Z,21.80
2019-04-23T16:27:46.809Z,21.80
2019-04-23T16:30:48.172Z,22.30
2019-04-23T16:37:08.131Z,22.20
2019-04-23T16:40:28.323Z,22.10
2019-04-23T16:43:12.715Z,21.30
2019-04-23T16:46:21.514Z,20.80
2019-04-23T16:49:21.969Z,20.40
2019-04-23T16:52:26.150Z,20.30
2019-04-23T16:55:29.470Z,19.60
2019-04-23T16:58:42.097Z,18.70
2019-04-23T17:01:39.708Z,18.20
2019-04-23T17:04:38.622Z,17.70
2019-04-23T17:07:53.340Z,17.30
2019-04-23T17:10:55.469Z,17.10
2019-04-23T17:13:58.952Z,16.90
2019-04-23T17:16:49.646Z,16.70
2019-04-23T17:19:59.414Z,16.40
2019-04-23T17:23:07.445Z,16.20
2019-04-23T17:29:18.623Z,15.90
2019-04-23T17:32:09.817Z,15.80
2019-04-23T17:35:24.486Z,15.60
2019-04-23T17:38:33.673Z,15.40
2019-04-23T17:41:50.632Z,15.20
2019-04-23T17:44:54.615Z,15.20
2019-04-23T17:47:59.310Z,15.00
2019-04-23T17:51:15.395Z,14.80
2019-04-23T17:54:06.572Z,14.60
2019-04-23T17:57:11.778Z,14.40
2019-04-23T18:03:28.229Z,14.20
2019-04-23T18:06:28.309Z,14.10
2019-04-23T18:09:18.370Z,14.00
2019-04-23T18:12:30.765Z,14.00
2019-04-23T18:15:35.222Z,13.90
2019-04-23T18:18:38.178Z,13.80
2019-04-23T18:25:04.346Z,13.40
2019-04-23T18:28:00.357Z,13.30
2019-04-23T18:31:33.272Z,13.10
2019-04-23T18:34:47.126Z,13.10
2019-04-23T18:37:58.373Z,13.00
2019-04-23T18:47:17.367Z,12.80
2019-04-23T18:50:22.663Z,12.80
2019-04-23T18:53:25.636Z,12.80
2019-04-23T18:56:19.329Z,12.70
2019-04-23T18:59:34.443Z,12.60
2019-04-23T19:05:43.314Z,12.50
2019-04-23T19:08:59.924Z,12.40
2019-04-23T19:15:26.568Z,12.20
2019-04-23T19:18:19.153Z,12.10
2019-04-23T19:24:31.624Z,12.00
2019-04-23T19:27:36.661Z,11.90
2019-04-23T19:30:56.573Z,11.90
2019-04-23T19:40:20.168Z,11.80
2019-04-23T19:46:43.995Z,11.70
2019-04-23T19:49:34.223Z,11.70
2019-04-23T19:52:53.414Z,11.60
2019-04-23T19:55:49.860Z,11.50
2019-04-23T20:01:49.759Z,11.40
2019-04-23T20:04:45.924Z,11.30
2019-04-23T20:10:57.832Z,11.20
2019-04-23T20:13:57.486Z,11.10
2019-04-23T20:17:31.765Z,11.10
2019-04-23T20:20:04.536Z,10.90
2019-04-23T20:23:14.031Z,11.00
2019-04-23T20:29:29.669Z,11.00
2019-04-23T20:33:00.103Z,10.90
2019-04-23T20:35:38.400Z,11.00
2019-04-23T20:42:02.416Z,10.70
2019-04-23T20:48:01.684Z,10.50
2019-04-23T20:50:56.352Z,10.40
2019-04-23T20:54:29.517Z,10.50
2019-04-23T20:57:39.199Z,10.40
2019-04-23T21:00:35.007Z,10.50
2019-04-23T21:06:45.925Z,10.40
2019-04-23T21:10:09.616Z,10.30
2019-04-23T21:15:54.644Z,10.50
2019-04-23T21:18:49.882Z,10.30
2019-04-23T21:22:09.515Z,10.30
2019-04-23T21:25:14.828Z,10.20
2019-04-23T21:28:17.271Z,10.20
2019-04-23T21:31:11.357Z,10.20
2019-04-23T21:34:26.917Z,10.30
2019-04-23T21:37:37.672Z,10.20
2019-04-23T21:41:02.246Z,10.20
2019-04-23T21:44:52.771Z,10.10
2019-04-23T21:46:51.122Z,10.00
2019-04-23T21:50:03.044Z,10.00
2019-04-23T21:52:56.090Z,10.10
2019-04-23T21:56:06.938Z,10.00
2019-04-23T21:59:04.339Z,9.90
2019-04-23T22:02:07.166Z,9.90
2019-04-23T22:05:17.490Z,10.00
2019-04-23T22:08:05.780Z,9.90
2019-04-23T22:11:53.652Z,9.80
2019-04-23T22:14:19.604Z,9.70
2019-04-23T22:17:27.321Z,9.80
2019-04-23T22:23:40.927Z,9.70
2019-04-23T22:26:36.296Z,9.60
2019-04-23T22:29:39.139Z,9.50
2019-04-23T22:35:51.470Z,9.40
2019-04-23T22:38:49.482Z,9.40
2019-04-23T22:42:08.906Z,9.30
2019-04-23T22:45:10.496Z,9.30
2019-04-23T22:51:11.041Z,9.10
2019-04-23T22:54:06.993Z,9.10
2019-04-23T22:57:05.815Z,9.10
2019-04-23T23:03:21.400Z,9.00
2019-04-23T23:06:57.285Z,9.00
2019-04-23T23:09:54.239Z,8.90
2019-04-23T23:12:58.414Z,8.80
2019-04-23T23:15:59.623Z,8.90
2019-04-23T23:25:16.816Z,9.10
2019-04-23T23:28:12.123Z,9.00
2019-04-23T23:34:15.594Z,8.90
2019-04-23T23:37:12.046Z,8.80
2019-04-23T23:40:25.713Z,8.70
2019-04-23T23:43:24.249Z,8.70
2019-04-23T23:46:35.253Z,8.70
2019-04-23T23:49:36.163Z,8.80
2019-04-23T23:52:41.053Z,8.90
2019-04-23T23:55:37.913Z,8.90
2019-04-23T23:58:55.284Z,8.80
